Time;durP1;ratioP1;P1;durP2;ratioP2;P2;SDS_P1;SDS_P2;PMS_P1;PMS_P2;Temp;Humidity;BMP_temperature;BMP_pressure;BME280_temperature;BME280_humidity;BME280_pressure;Samples;Min_cycle;Max_cycle;Signal;HPM_P1;HPM_P2
2023/06/01 00:00:07;;;;;;;16.77;5.72;;;11.70;99.90;;;;;;5035159;28;20030;-67
2023/06/01 00:02:32;;;;;;;16.40;6.10;;;11.60;99.90;;;;;;5017940;28;20064;-67
2023/06/01 00:04:58;;;;;;;15.45;4.80;;;11.60;99.90;;;;;;5015959;28;20045;-66
2023/06/01 00:07:24;;;;;;;15.35;5.03;;;11.70;99.90;;;;;;5014009;28;20046;-67
2023/06/01 00:09:50;;;;;;;16.63;5.05;;;11.60;99.90;;;;;;5029018;28;21952;-65
2023/06/01 00:12:15;;;;;;;12.73;5.00;;;11.70;99.90;;;;;;5021239;28;21149;-66
2023/06/01 00:14:41;;;;;;;11.98;4.80;;;11.60;99.90;;;;;;5027716;28;20057;-66
2023/06/01 00:17:07;;;;;;;11.73;5.07;;;11.60;99.90;;;;;;5017983;28;20048;-66
2023/06/01 00:19:34;;;;;;;12.93;5.18;;;11.60;99.90;;;;;;5033136;28;20060;-67
2023/06/01 00:22:00;;;;;;;13.80;5.20;;;11.60;99.90;;;;;;5015325;28;20168;-67
2023/06/01 00:24:26;;;;;;;14.57;5.25;;;11.60;99.90;;;;;;5030463;28;20057;-66
2023/06/01 00:26:52;;;;;;;14.35;5.30;;;11.60;99.90;;;;;;5000474;28;20930;-67
2023/06/01 00:29:18;;;;;;;10.05;5.07;;;11.60;99.90;;;;;;5033928;28;20037;-66
2023/06/01 00:31:44;;;;;;;18.48;5.30;;;11.60;99.90;;;;;;5013481;28;21668;-66
2023/06/01 00:34:10;;;;;;;14.88;5.95;;;11.60;99.90;;;;;;5014568;28;20107;-67
2023/06/01 00:36:36;;;;;;;14.05;4.85;;;11.70;99.90;;;;;;5017627;28;20040;-66
2023/06/01 00:39:03;;;;;;;15.25;5.80;;;11.60;99.90;;;;;;5029393;28;20041;-67
2023/06/01 00:41:30;;;;;;;13.10;5.35;;;11.60;99.90;;;;;;5008638;28;20064;-66
2023/06/01 00:43:56;;;;;;;17.13;5.15;;;11.60;99.90;;;;;;5022189;28;20504;-66
2023/06/01 00:46:22;;;;;;;14.90;5.65;;;11.60;99.90;;;;;;5025094;28;20052;-66
2023/06/01 00:48:48;;;;;;;13.88;5.20;;;11.50;99.90;;;;;;5019501;28;20044;-66
2023/06/01 00:51:15;;;;;;;15.75;5.40;;;11.50;99.90;;;;;;5013016;28;21546;-66
2023/06/01 00:53:41;;;;;;;12.60;5.75;;;11.50;99.90;;;;;;5007906;28;20049;-66
2023/06/01 00:56:08;;;;;;;13.52;5.68;;;11.50;99.90;;;;;;5025348;28;20108;-66
2023/06/01 00:58:34;;;;;;;12.68;5.50;;;11.50;99.90;;;;;;5012838;28;20043;-66
2023/06/01 01:01:01;;;;;;;12.32;5.65;;;11.50;99.90;;;;;;5012767;28;20033;-67
2023/06/01 01:03:31;;;;;;;12.45;5.75;;;11.50;99.90;;;;;;5026970;28;20037;-66
2023/06/01 01:06:22;;;;;;;15.05;6.68;;;11.50;99.90;;;;;;5004621;28;20134;-67
2023/06/01 01:09:07;;;;;;;14.35;6.68;;;11.50;99.90;;;;;;5021120;28;20785;-67
2023/06/01 01:11:35;;;;;;;15.95;5.88;;;11.50;99.90;;;;;;5039567;28;20401;-65
2023/06/01 01:14:23;;;;;;;11.73;5.88;;;11.40;99.90;;;;;;5036826;28;20059;-67
2023/06/01 01:17:24;;;;;;;15.15;5.20;;;11.40;99.90;;;;;;5021193;28;21827;-66
2023/06/01 01:20:08;;;;;;;13.05;5.55;;;11.40;99.90;;;;;;5033283;28;20084;-67
2023/06/01 01:22:53;;;;;;;13.25;5.78;;;11.40;99.90;;;;;;5027590;28;20052;-66
2023/06/01 01:25:28;;;;;;;10.40;5.25;;;11.40;99.90;;;;;;5025605;28;20072;-66
2023/06/01 01:28:12;;;;;;;17.00;5.93;;;11.30;99.90;;;;;;5040074;28;20048;-66
2023/06/01 01:30:41;;;;;;;14.52;5.25;;;11.40;99.90;;;;;;5020335;28;20063;-67
2023/06/01 01:33:09;;;;;;;14.40;5.50;;;11.40;99.90;;;;;;5032306;28;20041;-66
2023/06/01 01:35:36;;;;;;;16.48;5.38;;;11.30;99.90;;;;;;5033943;28;20662;-67
2023/06/01 01:38:02;;;;;;;15.40;4.57;;;11.30;99.90;;;;;;5036440;28;20040;-66
2023/06/01 01:40:27;;;;;;;15.02;5.07;;;11.30;99.90;;;;;;5037731;28;20060;-67
2023/06/01 01:42:54;;;;;;;16.13;5.22;;;11.30;99.90;;;;;;5033007;28;20179;-66
2023/06/01 01:45:21;;;;;;;17.55;5.18;;;11.30;99.90;;;;;;5033520;28;20056;-67
2023/06/01 01:48:19;;;;;;;10.90;4.88;;;11.30;99.90;;;;;;5025739;28;20040;-66
2023/06/01 01:50:53;;;;;;;12.55;4.72;;;11.30;99.90;;;;;;5031396;28;20456;-66
2023/06/01 01:53:22;;;;;;;10.48;5.05;;;11.40;99.90;;;;;;5029238;28;20052;-66
2023/06/01 01:55:49;;;;;;;11.75;4.65;;;11.30;99.90;;;;;;5034118;28;20053;-67
2023/06/01 01:58:16;;;;;;;11.68;5.15;;;11.30;99.90;;;;;;5014952;28;20029;-67
2023/06/01 02:00:43;;;;;;;8.63;4.68;;;11.30;99.90;;;;;;5037523;28;20037;-66
2023/06/01 02:03:16;;;;;;;9.38;4.68;;;11.30;99.90;;;;;;5018040;28;20045;-66
2023/06/01 02:05:42;;;;;;;9.60;3.90;;;11.30;99.90;;;;;;5032891;28;20096;-66
2023/06/01 02:08:08;;;;;;;11.43;4.35;;;11.30;99.90;;;;;;5032787;28;20052;-66
2023/06/01 02:10:33;;;;;;;8.80;4.20;;;11.30;99.90;;;;;;5028916;28;20045;-67
2023/06/01 02:13:01;;;;;;;11.55;4.22;;;11.30;99.90;;;;;;5029354;28;20158;-65
2023/06/01 02:15:26;;;;;;;13.48;4.80;;;11.30;99.90;;;;;;5027599;28;20444;-67
2023/06/01 02:17:53;;;;;;;11.52;4.00;;;11.40;99.90;;;;;;5028795;28;20080;-66
2023/06/01 02:20:19;;;;;;;9.88;4.07;;;11.40;99.90;;;;;;5001676;28;20041;-66
2023/06/01 02:22:46;;;;;;;9.77;3.78;;;11.30;99.90;;;;;;5030638;28;20045;-66
2023/06/01 02:25:11;;;;;;;7.57;3.70;;;11.30;99.90;;;;;;5018336;28;21766;-66
2023/06/01 02:27:37;;;;;;;8.88;3.70;;;11.30;99.90;;;;;;5014171;28;20554;-66
2023/06/01 02:30:06;;;;;;;10.43;4.00;;;11.30;99.90;;;;;;5028760;28;20450;-66
2023/06/01 02:32:32;;;;;;;10.65;3.88;;;11.30;99.90;;;;;;5007586;28;20049;-66
2023/06/01 02:34:58;;;;;;;9.98;4.07;;;11.40;99.90;;;;;;5039859;28;20040;-67
2023/06/01 02:37:24;;;;;;;10.52;4.07;;;11.30;99.90;;;;;;5014865;28;20045;-66
2023/06/01 02:39:50;;;;;;;14.52;4.40;;;11.40;99.90;;;;;;5032388;28;20045;-67
2023/06/01 02:42:16;;;;;;;13.57;3.88;;;11.40;99.90;;;;;;4999078;28;20584;-66
2023/06/01 02:44:41;;;;;;;10.50;4.05;;;11.40;99.90;;;;;;5030338;28;20048;-66
2023/06/01 02:47:07;;;;;;;8.13;4.25;;;11.40;99.90;;;;;;5013974;28;20119;-67
2023/06/01 02:49:33;;;;;;;10.32;4.78;;;11.40;99.90;;;;;;5032349;28;20051;-66
2023/06/01 02:51:59;;;;;;;9.38;4.00;;;11.40;99.90;;;;;;5033390;28;20051;-66
2023/06/01 02:54:25;;;;;;;10.82;4.18;;;11.30;99.90;;;;;;5017974;28;20043;-66
2023/06/01 02:56:50;;;;;;;10.77;4.70;;;11.40;99.90;;;;;;5031610;28;20397;-66
2023/06/01 02:59:16;;;;;;;13.35;4.95;;;11.40;99.90;;;;;;5031562;28;20519;-67
2023/06/01 03:01:42;;;;;;;13.85;5.07;;;11.40;99.90;;;;;;5030407;28;20045;-66
2023/06/01 03:04:08;;;;;;;10.50;5.50;;;11.40;99.90;;;;;;5033663;28;20609;-67
2023/06/01 03:06:37;;;;;;;10.48;4.85;;;11.40;99.90;;;;;;5031567;28;20048;-66
2023/06/01 03:09:04;;;;;;;14.27;4.53;;;11.50;99.90;;;;;;5016744;28;20106;-66
2023/06/01 03:11:30;;;;;;;10.10;4.57;;;11.40;99.90;;;;;;5034795;28;20045;-66
2023/06/01 03:13:56;;;;;;;15.23;4.88;;;11.40;99.90;;;;;;5027018;28;20056;-67
2023/06/01 03:16:23;;;;;;;17.80;5.53;;;11.40;99.90;;;;;;5018852;28;20052;-66
2023/06/01 03:18:49;;;;;;;17.38;5.05;;;11.40;99.90;;;;;;5020291;28;20037;-66
2023/06/01 03:21:16;;;;;;;15.18;5.60;;;11.40;99.90;;;;;;5032802;28;20412;-66
2023/06/01 03:23:43;;;;;;;12.70;4.80;;;11.40;99.90;;;;;;5029475;28;20730;-66
2023/06/01 03:26:13;;;;;;;19.48;5.18;;;11.40;99.90;;;;;;5030891;28;20059;-66
2023/06/01 03:28:39;;;;;;;17.52;5.68;;;11.40;99.90;;;;;;5019762;28;20052;-66
2023/06/01 03:31:06;;;;;;;18.55;5.40;;;11.40;99.90;;;;;;5025628;28;20044;-66
2023/06/01 03:33:31;;;;;;;12.43;5.07;;;11.40;99.90;;;;;;5031943;28;20045;-66
2023/06/01 03:35:57;;;;;;;16.80;4.80;;;11.40;99.90;;;;;;5018663;28;20585;-67
2023/06/01 03:38:23;;;;;;;12.07;5.07;;;11.40;99.90;;;;;;5027193;28;20041;-66
2023/06/01 03:40:49;;;;;;;12.65;4.97;;;11.30;99.90;;;;;;5007739;28;20041;-66
2023/06/01 03:43:14;;;;;;;15.60;5.63;;;11.30;99.90;;;;;;4993184;28;20036;-65
2023/06/01 03:45:40;;;;;;;12.07;5.07;;;11.30;99.90;;;;;;5028348;28;20535;-66
2023/06/01 03:48:06;;;;;;;15.40;5.90;;;11.30;99.90;;;;;;5025965;28;20049;-67
2023/06/01 03:50:31;;;;;;;15.15;6.13;;;11.30;99.90;;;;;;5027816;28;20496;-66
2023/06/01 03:52:57;;;;;;;12.70;6.30;;;11.30;99.90;;;;;;5029726;28;20095;-67
2023/06/01 03:55:23;;;;;;;17.00;6.45;;;11.30;99.90;;;;;;5028849;28;20094;-66
2023/06/01 03:57:49;;;;;;;17.70;6.07;;;11.40;99.90;;;;;;5026448;28;20697;-67
2023/06/01 04:00:18;;;;;;;15.95;6.50;;;11.30;99.90;;;;;;5030203;28;20154;-66
2023/06/01 04:02:48;;;;;;;17.15;6.45;;;11.30;99.90;;;;;;4998587;28;20486;-66
2023/06/01 04:05:16;;;;;;;16.10;5.75;;;11.30;99.90;;;;;;5031716;28;20539;-66
2023/06/01 04:07:47;;;;;;;14.15;5.68;;;11.30;99.90;;;;;;5013206;28;20191;-66
2023/06/01 04:10:14;;;;;;;11.27;5.75;;;11.30;99.90;;;;;;5000729;28;21166;-66
2023/06/01 04:12:44;;;;;;;19.08;5.22;;;11.30;99.90;;;;;;5052474;28;20057;-66
2023/06/01 04:15:11;;;;;;;10.38;5.30;;;11.30;99.90;;;;;;4993862;28;20531;-66
2023/06/01 04:17:38;;;;;;;12.85;4.88;;;11.30;99.90;;;;;;5025891;28;20386;-66
2023/06/01 04:20:09;;;;;;;13.48;5.72;;;11.30;99.90;;;;;;5031404;28;20039;-66
2023/06/01 04:22:35;;;;;;;12.57;5.00;;;11.30;99.90;;;;;;5031741;28;20045;-66
2023/06/01 04:25:02;;;;;;;17.65;5.00;;;11.30;99.90;;;;;;5033554;28;20044;-66
2023/06/01 04:27:28;;;;;;;15.43;4.82;;;11.30;99.90;;;;;;5014999;28;20132;-67
2023/06/01 04:29:54;;;;;;;7.40;4.50;;;11.30;99.90;;;;;;5017376;28;20047;-66
2023/06/01 04:32:22;;;;;;;10.07;4.55;;;11.30;99.90;;;;;;5035818;28;20052;-67
2023/06/01 04:34:51;;;;;;;12.35;4.80;;;11.30;99.90;;;;;;5016678;28;20095;-66
2023/06/01 04:37:21;;;;;;;11.68;5.00;;;11.30;99.90;;;;;;5038619;28;20107;-65
2023/06/01 04:39:51;;;;;;;9.98;4.40;;;11.30;99.90;;;;;;5036327;28;20052;-66
2023/06/01 04:42:18;;;;;;;11.32;4.53;;;11.30;99.90;;;;;;5031586;28;20056;-66
2023/06/01 04:44:49;;;;;;;11.32;4.10;;;11.40;99.90;;;;;;5015938;28;20096;-65
2023/06/01 04:47:16;;;;;;;8.88;4.25;;;11.40;99.90;;;;;;5028397;28;20090;-66
2023/06/01 04:49:43;;;;;;;13.30;4.15;;;11.40;99.90;;;;;;5029310;28;20567;-66
2023/06/01 04:52:12;;;;;;;12.05;4.70;;;11.40;99.90;;;;;;5024550;28;20546;-66
2023/06/01 04:54:38;;;;;;;13.13;4.65;;;11.40;99.90;;;;;;5015817;28;20041;-66
2023/06/01 04:57:06;;;;;;;9.52;4.55;;;11.50;99.90;;;;;;5015622;28;20105;-66
2023/06/01 04:59:32;;;;;;;15.75;5.05;;;11.50;99.90;;;;;;5023043;28;20594;-67
2023/06/01 05:02:00;;;;;;;11.15;4.78;;;11.50;99.90;;;;;;5030631;28;20036;-66
2023/06/01 05:04:26;;;;;;;13.02;5.38;;;11.50;99.90;;;;;;5013916;28;20156;-66
2023/06/01 05:06:52;;;;;;;10.27;4.85;;;11.50;99.90;;;;;;5010096;28;20056;-67
2023/06/01 05:09:18;;;;;;;14.10;5.10;;;11.50;99.90;;;;;;5024254;28;20032;-66
2023/06/01 05:11:44;;;;;;;13.30;4.80;;;11.50;99.90;;;;;;5028001;28;20041;-66
2023/06/01 05:14:10;;;;;;;12.38;4.95;;;11.50;99.90;;;;;;5027890;28;20049;-66
2023/06/01 05:16:36;;;;;;;11.30;5.78;;;11.50;99.90;;;;;;5013098;28;20492;-66
2023/06/01 05:19:01;;;;;;;12.23;5.70;;;11.60;99.90;;;;;;5022406;28;20041;-66
2023/06/01 05:21:27;;;;;;;13.10;6.00;;;11.50;99.90;;;;;;5007659;28;20690;-66
2023/06/01 05:23:53;;;;;;;13.63;4.85;;;11.60;99.90;;;;;;5029364;28;20048;-65
2023/06/01 05:26:22;;;;;;;11.90;5.10;;;11.50;99.90;;;;;;5028179;28;20040;-66
2023/06/01 05:28:47;;;;;;;8.68;4.50;;;11.50;99.90;;;;;;5022104;28;20052;-66
2023/06/01 05:31:13;;;;;;;6.85;4.43;;;11.50;99.90;;;;;;5029856;28;20500;-67
2023/06/01 05:33:39;;;;;;;8.95;3.83;;;11.50;99.90;;;;;;5022825;28;20049;-66
2023/06/01 05:36:05;;;;;;;12.88;4.72;;;11.50;99.90;;;;;;5021383;28;20751;-67
2023/06/01 05:38:30;;;;;;;13.05;4.78;;;11.60;99.90;;;;;;5023500;28;20088;-66
2023/06/01 05:40:56;;;;;;;12.02;3.65;;;11.60;99.90;;;;;;5007947;28;20753;-67
2023/06/01 05:43:22;;;;;;;8.52;4.63;;;11.60;99.90;;;;;;5029556;28;20149;-66
2023/06/01 05:45:48;;;;;;;13.93;4.88;;;11.60;99.90;;;;;;5027653;28;20041;-66
2023/06/01 05:48:14;;;;;;;11.73;4.57;;;11.60;99.90;;;;;;5010190;28;20106;-66
2023/06/01 05:50:41;;;;;;;11.27;4.70;;;11.60;99.90;;;;;;5029036;28;20056;-66
2023/06/01 05:53:10;;;;;;;13.15;4.78;;;11.60;99.90;;;;;;5006138;28;20124;-66
2023/06/01 05:55:36;;;;;;;12.25;4.82;;;11.60;99.90;;;;;;5032337;28;20040;-66
2023/06/01 05:58:02;;;;;;;11.20;4.55;;;11.70;99.90;;;;;;5031534;28;20044;-67
2023/06/01 06:00:28;;;;;;;12.95;4.82;;;11.70;99.90;;;;;;5020736;28;20044;-66
2023/06/01 06:02:54;;;;;;;11.52;4.10;;;11.70;99.90;;;;;;5007113;28;20049;-66
2023/06/01 06:05:20;;;;;;;7.53;3.30;;;11.70;99.90;;;;;;5036970;28;20045;-67
2023/06/01 06:07:46;;;;;;;7.97;3.20;;;11.70;99.90;;;;;;5034189;28;20132;-67
2023/06/01 06:10:12;;;;;;;6.68;2.47;;;11.80;99.90;;;;;;5016694;28;20401;-67
2023/06/01 06:12:38;;;;;;;5.47;2.00;;;11.70;99.90;;;;;;5018701;28;20665;-73
2023/06/01 06:15:05;;;;;;;7.63;2.20;;;11.80;99.90;;;;;;5020026;28;20049;-69
2023/06/01 06:17:30;;;;;;;4.88;2.22;;;11.80;99.90;;;;;;5033720;28;20044;-70
2023/06/01 06:19:56;;;;;;;4.15;2.08;;;11.80;99.90;;;;;;5006071;28;20715;-71
2023/06/01 06:22:22;;;;;;;5.72;2.22;;;11.80;99.90;;;;;;5043698;28;20037;-70
2023/06/01 06:24:49;;;;;;;5.75;2.15;;;11.80;99.90;;;;;;5019413;28;20606;-70
2023/06/01 06:27:15;;;;;;;8.45;2.80;;;11.80;99.90;;;;;;5006802;28;20049;-71
2023/06/01 06:29:41;;;;;;;4.80;2.35;;;11.90;99.90;;;;;;5009921;28;20044;-70
2023/06/01 06:32:07;;;;;;;5.63;1.95;;;11.90;99.90;;;;;;5035054;28;20421;-71
2023/06/01 06:34:35;;;;;;;4.43;1.90;;;11.90;99.90;;;;;;5025203;28;20052;-71
2023/06/01 06:37:06;;;;;;;4.47;1.90;;;11.90;99.90;;;;;;5018227;28;20041;-70
2023/06/01 06:39:32;;;;;;;4.32;2.10;;;11.90;99.90;;;;;;5014131;28;20112;-70
2023/06/01 06:41:59;;;;;;;4.97;2.30;;;11.90;99.90;;;;;;5041324;28;20124;-70
2023/06/01 06:44:28;;;;;;;8.38;2.63;;;12.00;99.90;;;;;;5036335;28;20056;-71
2023/06/01 06:46:54;;;;;;;5.65;2.40;;;12.00;99.90;;;;;;5030371;28;20053;-71
2023/06/01 06:49:19;;;;;;;4.68;2.88;;;12.00;99.90;;;;;;5020760;28;20044;-71
2023/06/01 06:51:46;;;;;;;5.35;2.53;;;12.00;99.90;;;;;;5034970;28;20041;-70
2023/06/01 06:54:12;;;;;;;5.45;2.38;;;12.00;99.90;;;;;;5031818;28;20095;-70
2023/06/01 06:56:38;;;;;;;6.07;2.47;;;12.00;99.90;;;;;;5018645;28;20048;-70
2023/06/01 06:59:03;;;;;;;5.82;2.20;;;12.00;99.90;;;;;;5016210;28;20037;-71
2023/06/01 07:01:29;;;;;;;7.25;2.30;;;12.00;99.90;;;;;;5014766;28;20520;-71
2023/06/01 07:03:55;;;;;;;6.50;2.30;;;12.10;99.90;;;;;;5030416;28;20077;-70
2023/06/01 07:06:22;;;;;;;5.68;2.10;;;12.00;99.90;;;;;;5017288;28;20167;-71
2023/06/01 07:08:49;;;;;;;5.20;2.10;;;12.00;99.90;;;;;;5019454;28;20033;-70
2023/06/01 07:11:15;;;;;;;3.78;1.83;;;12.10;99.90;;;;;;5040798;28;20044;-71
2023/06/01 07:13:41;;;;;;;4.32;2.47;;;12.10;99.90;;;;;;5007667;28;20040;-71
2023/06/01 07:16:07;;;;;;;3.92;2.03;;;12.10;99.90;;;;;;5021418;28;20095;-70
2023/06/01 07:18:32;;;;;;;5.18;2.30;;;12.10;99.90;;;;;;5037860;28;20033;-71
2023/06/01 07:20:58;;;;;;;5.13;2.60;;;12.10;99.90;;;;;;5008255;28;20417;-71
2023/06/01 07:23:24;;;;;;;5.43;2.50;;;12.10;99.90;;;;;;5017064;28;20397;-72
2023/06/01 07:25:50;;;;;;;6.45;2.70;;;12.10;99.90;;;;;;5018167;28;20447;-70
2023/06/01 07:28:16;;;;;;;5.55;3.25;;;12.20;99.90;;;;;;5024794;28;20048;-70
2023/06/01 07:30:42;;;;;;;6.80;2.97;;;12.20;99.90;;;;;;5002674;28;20041;-71
2023/06/01 07:33:08;;;;;;;14.90;3.70;;;12.20;99.90;;;;;;5018958;28;20451;-70
2023/06/01 07:35:34;;;;;;;6.47;3.50;;;12.20;99.90;;;;;;5031757;28;20053;-71
2023/06/01 07:38:03;;;;;;;6.05;3.10;;;12.20;99.90;;;;;;5030949;28;20048;-71
2023/06/01 07:40:29;;;;;;;6.20;2.72;;;12.20;99.90;;;;;;5021436;28;20045;-70
2023/06/01 07:42:55;;;;;;;5.10;2.50;;;12.30;99.90;;;;;;5005526;28;20061;-70
2023/06/01 07:45:21;;;;;;;5.78;2.50;;;12.30;99.90;;;;;;5017231;28;20166;-70
2023/06/01 07:47:47;;;;;;;4.47;2.10;;;12.40;99.90;;;;;;5031274;28;20045;-70
2023/06/01 07:50:13;;;;;;;6.32;1.67;;;12.40;99.90;;;;;;5032274;28;20049;-70
2023/06/01 07:52:40;;;;;;;3.40;1.42;;;12.50;99.90;;;;;;5017406;28;20397;-70
2023/06/01 07:55:09;;;;;;;5.20;1.63;;;12.40;99.90;;;;;;5011953;28;20394;-69
2023/06/01 07:57:35;;;;;;;3.72;1.73;;;12.40;99.90;;;;;;5015929;28;20057;-70
2023/06/01 08:00:03;;;;;;;5.15;1.70;;;12.40;99.90;;;;;;5038483;28;20430;-70
2023/06/01 08:02:28;;;;;;;5.00;1.67;;;12.40;99.90;;;;;;5019938;28;20048;-70
2023/06/01 08:04:56;;;;;;;5.15;2.17;;;12.40;99.90;;;;;;5034259;28;20056;-71
2023/06/01 08:07:22;;;;;;;6.40;2.90;;;12.50;99.90;;;;;;5036160;28;20090;-71
2023/06/01 08:09:49;;;;;;;7.05;2.80;;;12.50;99.90;;;;;;5017229;28;20040;-69
2023/06/01 08:12:15;;;;;;;7.25;2.75;;;12.50;99.90;;;;;;5026600;28;20041;-70
2023/06/01 08:14:41;;;;;;;7.53;2.38;;;12.50;99.90;;;;;;5023319;28;20558;-69
2023/06/01 08:17:07;;;;;;;7.95;2.90;;;12.50;99.90;;;;;;5023390;28;20112;-72
2023/06/01 08:19:34;;;;;;;9.18;3.42;;;12.50;99.90;;;;;;5023458;28;20113;-70
2023/06/01 08:21:59;;;;;;;6.90;3.53;;;12.50;99.90;;;;;;5035819;28;20029;-71
2023/06/01 08:24:25;;;;;;;10.23;3.42;;;12.50;99.90;;;;;;5019205;28;20090;-71
2023/06/01 08:26:56;;;;;;;9.13;3.35;;;12.50;99.90;;;;;;5008629;28;20127;-70
2023/06/01 08:29:22;;;;;;;13.25;4.65;;;12.50;99.90;;;;;;5036777;28;20064;-70
2023/06/01 08:31:47;;;;;;;15.13;4.00;;;12.50;99.90;;;;;;5029877;28;20049;-71
2023/06/01 08:34:13;;;;;;;17.00;4.43;;;12.50;99.90;;;;;;5003237;28;20137;-70
2023/06/01 08:36:39;;;;;;;12.48;4.55;;;12.50;99.90;;;;;;5019921;28;20037;-70
2023/06/01 08:39:24;;;;;;;7.80;3.92;;;12.50;99.90;;;;;;5019705;28;20138;-71
2023/06/01 08:41:50;;;;;;;17.08;4.13;;;12.50;99.90;;;;;;5021248;28;20500;-70
2023/06/01 08:44:18;;;;;;;11.88;3.85;;;12.50;99.90;;;;;;5019838;28;20037;-70
2023/06/01 08:46:44;;;;;;;11.82;4.05;;;12.50;99.90;;;;;;5004334;28;20056;-70
2023/06/01 08:49:13;;;;;;;14.15;4.22;;;12.50;99.90;;;;;;5004186;28;20044;-70
2023/06/01 08:51:40;;;;;;;13.20;3.63;;;12.50;99.90;;;;;;5022381;28;20473;-71
2023/06/01 08:54:09;;;;;;;16.70;4.00;;;12.50;99.90;;;;;;5017661;28;20053;-70
2023/06/01 08:56:35;;;;;;;10.68;3.60;;;12.50;99.90;;;;;;5039391;28;20652;-70
2023/06/01 08:59:02;;;;;;;12.68;3.25;;;12.60;99.90;;;;;;5024714;28;20036;-71
2023/06/01 09:01:28;;;;;;;8.60;3.25;;;12.60;99.90;;;;;;5035754;28;20492;-71
2023/06/01 09:03:53;;;;;;;10.23;2.63;;;12.60;99.90;;;;;;5014232;28;20049;-71
2023/06/01 09:06:19;;;;;;;11.23;3.58;;;12.60;99.90;;;;;;5005682;28;20494;-71
2023/06/01 09:08:49;;;;;;;11.77;3.28;;;12.60;99.90;;;;;;5028751;28;20044;-71
2023/06/01 09:11:15;;;;;;;7.10;2.88;;;12.70;99.90;;;;;;5019569;28;20045;-70
2023/06/01 09:13:41;;;;;;;12.73;3.50;;;12.70;99.90;;;;;;4989590;28;20049;-70
2023/06/01 09:16:07;;;;;;;15.13;3.20;;;12.80;99.90;;;;;;5022348;28;20048;-70
2023/06/01 09:18:33;;;;;;;12.15;3.08;;;12.80;99.90;;;;;;5036596;28;20038;-70
2023/06/01 09:21:13;;;;;;;10.88;3.13;;;12.80;99.90;;;;;;5021670;28;20055;-70
2023/06/01 09:23:41;;;;;;;10.95;2.90;;;12.80;99.90;;;;;;5023463;28;20073;-70
2023/06/01 09:26:11;;;;;;;11.88;2.90;;;12.80;99.90;;;;;;5006706;28;20132;-71
2023/06/01 09:28:55;;;;;;;10.40;3.20;;;12.90;99.90;;;;;;5022065;28;20091;-71
2023/06/01 09:31:45;;;;;;;13.52;3.15;;;12.90;99.90;;;;;;5023194;28;20091;-70
2023/06/01 09:34:22;;;;;;;10.05;3.33;;;12.90;99.90;;;;;;5037111;28;20041;-70
2023/06/01 09:36:50;;;;;;;11.75;3.50;;;12.90;99.90;;;;;;5037198;28;20056;-71
2023/06/01 09:39:19;;;;;;;9.50;3.10;;;12.90;99.90;;;;;;5023104;28;20036;-70
2023/06/01 09:41:47;;;;;;;9.02;3.40;;;13.00;99.90;;;;;;5020990;28;20037;-70
2023/06/01 09:44:14;;;;;;;10.02;2.95;;;13.00;99.90;;;;;;5047429;28;20359;-70
2023/06/01 09:46:51;;;;;;;7.75;2.50;;;13.10;99.90;;;;;;5008638;28;20041;-70
2023/06/01 09:49:22;;;;;;;8.02;3.00;;;13.10;99.90;;;;;;5023398;28;20851;-71
2023/06/01 09:51:48;;;;;;;10.88;3.10;;;13.20;99.90;;;;;;5021653;28;20042;-71
2023/06/01 09:54:28;;;;;;;14.65;3.33;;;13.30;99.90;;;;;;5021222;28;20077;-70
2023/06/01 09:56:55;;;;;;;9.85;3.50;;;13.30;99.90;;;;;;5014300;28;20693;-70
2023/06/01 09:59:25;;;;;;;13.25;3.25;;;13.30;99.90;;;;;;5033699;28;20037;-71
2023/06/01 10:01:58;;;;;;;13.23;3.80;;;13.30;99.90;;;;;;5037660;28;20041;-70
2023/06/01 10:04:27;;;;;;;11.90;3.58;;;13.30;99.90;;;;;;5021738;28;20057;-71
2023/06/01 10:06:57;;;;;;;10.75;3.88;;;13.30;99.90;;;;;;5024302;28;20052;-70
2023/06/01 10:09:25;;;;;;;10.70;3.60;;;13.30;99.90;;;;;;5038014;28;20044;-71
2023/06/01 10:11:53;;;;;;;11.68;3.53;;;13.30;99.90;;;;;;5019694;28;20045;-72
2023/06/01 10:14:24;;;;;;;11.70;3.25;;;13.30;99.90;;;;;;5040516;28;20056;-71
2023/06/01 10:16:51;;;;;;;15.55;3.67;;;13.30;99.90;;;;;;5039576;28;20041;-71
2023/06/01 10:19:19;;;;;;;10.05;3.30;;;13.30;99.90;;;;;;5034988;28;20626;-70
2023/06/01 10:21:46;;;;;;;10.80;3.17;;;13.40;99.90;;;;;;5008823;28;20446;-70
2023/06/01 10:24:14;;;;;;;9.23;3.22;;;13.40;99.90;;;;;;5017635;28;20094;-71
2023/06/01 10:26:46;;;;;;;12.52;3.60;;;13.40;99.90;;;;;;5026143;28;20538;-70
2023/06/01 10:29:12;;;;;;;12.40;3.53;;;13.50;99.90;;;;;;5038489;28;20037;-70
2023/06/01 10:31:40;;;;;;;11.52;3.58;;;13.50;99.90;;;;;;5010990;28;20492;-71
2023/06/01 10:34:08;;;;;;;13.35;3.67;;;13.60;99.90;;;;;;5030746;28;20123;-71
2023/06/01 10:36:53;;;;;;;10.63;3.22;;;13.60;99.90;;;;;;5037439;28;20052;-70
2023/06/01 10:39:26;;;;;;;8.65;3.47;;;13.60;99.90;;;;;;5033564;28;20048;-70
2023/06/01 10:41:52;;;;;;;6.55;2.60;;;13.70;99.90;;;;;;5019629;28;20394;-71
2023/06/01 10:44:40;;;;;;;10.70;3.75;;;13.70;99.90;;;;;;5034019;28;20041;-71
2023/06/01 10:47:26;;;;;;;11.50;3.00;;;13.70;99.90;;;;;;5020253;28;20040;-71
2023/06/01 10:49:52;;;;;;;9.00;3.30;;;13.70;99.90;;;;;;5019697;28;20552;-70
2023/06/01 10:52:51;;;;;;;7.32;2.90;;;13.70;99.90;;;;;;5018955;28;20044;-71
2023/06/01 10:55:16;;;;;;;5.20;2.70;;;13.70;99.90;;;;;;5019328;28;20194;-71
2023/06/01 10:57:46;;;;;;;9.60;2.63;;;13.80;99.90;;;;;;5035199;28;20119;-70
2023/06/01 11:00:13;;;;;;;6.15;2.63;;;13.90;99.90;;;;;;5026425;28;20106;-71
2023/06/01 11:02:52;;;;;;;8.13;2.78;;;14.00;99.90;;;;;;5031136;28;20504;-71
2023/06/01 11:05:43;;;;;;;7.10;2.90;;;14.00;99.90;;;;;;5029836;28;20053;-70
2023/06/01 11:08:21;;;;;;;7.43;3.67;;;14.10;99.90;;;;;;5036596;28;20702;-71
2023/06/01 11:10:53;;;;;;;10.40;2.72;;;14.20;99.90;;;;;;5049130;28;20041;-70
2023/06/01 11:13:34;;;;;;;7.95;2.92;;;14.20;99.90;;;;;;5032159;28;20045;-71
2023/06/01 11:16:21;;;;;;;7.20;2.53;;;14.30;99.90;;;;;;5011203;28;20072;-71
2023/06/01 11:19:01;;;;;;;9.90;2.80;;;14.40;99.90;;;;;;5038905;28;20051;-71
2023/06/01 11:21:36;;;;;;;9.35;3.00;;;14.30;99.90;;;;;;5031258;28;20123;-71
2023/06/01 11:24:10;;;;;;;11.82;3.45;;;14.40;99.90;;;;;;5023820;28;20432;-70
2023/06/01 11:26:39;;;;;;;9.68;3.30;;;14.30;99.90;;;;;;5015317;28;20048;-71
2023/06/01 11:29:08;;;;;;;14.00;3.50;;;14.40;99.90;;;;;;5043485;28;20072;-71
2023/06/01 11:31:43;;;;;;;10.48;3.10;;;14.40;99.90;;;;;;5018757;28;20049;-71
2023/06/01 11:34:10;;;;;;;10.20;3.28;;;14.40;99.90;;;;;;5008341;28;20501;-71
2023/06/01 11:36:44;;;;;;;17.63;3.50;;;14.30;99.90;;;;;;5020311;28;20115;-71
2023/06/01 11:39:37;;;;;;;9.45;3.40;;;14.20;99.90;;;;;;5030749;28;20041;-71
2023/06/01 11:42:10;;;;;;;9.82;3.28;;;14.10;99.90;;;;;;5034270;28;21567;-71
2023/06/01 11:44:41;;;;;;;9.43;3.45;;;14.10;99.90;;;;;;5018439;28;20458;-71
2023/06/01 11:47:08;;;;;;;10.73;3.70;;;14.20;99.90;;;;;;5015053;28;20045;-71
2023/06/01 11:49:41;;;;;;;10.32;3.17;;;14.20;99.90;;;;;;5005500;28;20500;-71
2023/06/01 11:52:09;;;;;;;18.20;4.47;;;14.20;99.90;;;;;;5015138;28;20516;-71
2023/06/01 11:54:36;;;;;;;9.20;3.85;;;14.30;99.90;;;;;;5032177;28;20045;-71
2023/06/01 11:57:03;;;;;;;9.68;3.60;;;14.20;99.90;;;;;;5018381;28;20045;-71
2023/06/01 11:59:41;;;;;;;7.55;3.40;;;14.20;99.90;;;;;;5032199;28;20795;-71
2023/06/01 12:02:22;;;;;;;7.38;2.75;;;14.20;99.90;;;;;;5024189;28;20533;-71
2023/06/01 12:05:08;;;;;;;9.68;2.90;;;14.20;99.90;;;;;;5014755;28;20076;-71
2023/06/01 12:07:45;;;;;;;8.20;2.63;;;14.20;99.90;;;;;;5031881;28;20041;-71
2023/06/01 12:10:16;;;;;;;6.07;3.00;;;14.20;99.90;;;;;;5013263;28;20179;-70
2023/06/01 12:12:45;;;;;;;6.20;3.35;;;14.20;99.90;;;;;;5028560;28;20049;-61
2023/06/01 12:15:16;;;;;;;9.18;3.20;;;14.20;99.90;;;;;;5032468;28;20509;-61
2023/06/01 12:17:49;;;;;;;7.45;3.08;;;14.20;99.90;;;;;;5030582;28;20045;-61
2023/06/01 12:20:33;;;;;;;9.05;3.38;;;14.10;99.90;;;;;;5031613;28;20128;-61
2023/06/01 12:23:03;;;;;;;12.20;4.05;;;14.10;99.90;;;;;;5030630;28;20064;-61
2023/06/01 12:25:30;;;;;;;7.50;3.15;;;14.10;99.90;;;;;;5026927;28;20073;-61
2023/06/01 12:28:08;;;;;;;10.40;3.67;;;14.10;99.90;;;;;;5036849;28;20051;-61
2023/06/01 12:30:34;;;;;;;6.63;3.28;;;14.20;99.90;;;;;;5037601;28;20118;-60
2023/06/01 12:33:00;;;;;;;10.10;3.90;;;14.20;99.90;;;;;;5023566;28;20502;-60
2023/06/01 12:35:26;;;;;;;13.80;3.20;;;14.20;99.90;;;;;;5039336;28;20412;-61
2023/06/01 12:38:10;;;;;;;13.82;3.80;;;14.10;99.90;;;;;;5037613;28;20044;-61
2023/06/01 12:40:37;;;;;;;10.57;3.80;;;14.00;99.90;;;;;;5034699;28;20037;-60
2023/06/01 12:43:05;;;;;;;11.98;3.78;;;13.90;99.90;;;;;;5026844;28;20048;-61
2023/06/01 12:45:40;;;;;;;10.60;4.00;;;13.90;99.90;;;;;;5019337;28;20095;-61
2023/06/01 12:48:06;;;;;;;10.57;3.10;;;13.90;99.90;;;;;;5031463;28;20071;-61